createdAt,value
2018-07-11T00:01:25.094Z,4.62
2018-07-11T00:03:55.828Z,5.67
2018-07-11T00:06:28.274Z,4.22
2018-07-11T00:09:00.009Z,4.72
2018-07-11T00:11:30.774Z,3.77
2018-07-11T00:14:01.140Z,4.37
2018-07-11T00:16:32.496Z,3.90
2018-07-11T00:19:04.182Z,4.20
2018-07-11T00:21:36.125Z,3.92
2018-07-11T00:24:07.521Z,4.83
2018-07-11T00:26:39.229Z,5.58
2018-07-11T00:29:11.246Z,4.12
2018-07-11T00:31:43.488Z,3.85
2018-07-11T00:34:14.402Z,5.22
2018-07-11T00:36:47.609Z,4.53
2018-07-11T00:39:19.125Z,4.22
2018-07-11T00:41:51.016Z,4.45
2018-07-11T00:44:22.446Z,5.83
2018-07-11T00:46:52.996Z,4.45
2018-07-11T00:49:24.548Z,5.37
2018-07-11T00:51:57.109Z,5.47
2018-07-11T00:54:29.139Z,6.05
2018-07-11T00:56:59.496Z,4.65
2018-07-11T00:59:34.513Z,4.47
2018-07-11T01:02:08.756Z,4.15
2018-07-11T01:04:39.413Z,5.17
2018-07-11T01:07:10.835Z,5.33
2018-07-11T01:09:46.063Z,5.62
2018-07-11T01:12:16.640Z,6.30
2018-07-11T01:14:48.325Z,6.12
2018-07-11T01:17:23.926Z,5.08
2018-07-11T01:19:53.754Z,4.62
2018-07-11T01:22:24.382Z,5.12
2018-07-11T01:24:55.159Z,4.35
2018-07-11T01:27:25.485Z,4.80
2018-07-11T01:29:56.666Z,5.90
2018-07-11T01:32:27.975Z,5.83
2018-07-11T01:34:58.173Z,6.37
2018-07-11T01:37:30.062Z,4.90
2018-07-11T01:40:00.507Z,4.87
2018-07-11T01:42:30.845Z,4.80
2018-07-11T01:45:03.155Z,5.20
2018-07-11T01:47:33.353Z,4.78
2018-07-11T01:50:03.201Z,4.70
2018-07-11T01:52:50.995Z,5.10
2018-07-11T01:55:21.517Z,4.75
2018-07-11T01:57:58.333Z,5.10
2018-07-11T02:00:29.459Z,5.15
2018-07-11T02:03:00.673Z,5.10
2018-07-11T02:05:32.115Z,3.52
2018-07-11T02:08:02.891Z,4.47
2018-07-11T02:10:33.822Z,4.78
2018-07-11T02:13:03.962Z,4.03
2018-07-11T02:15:34.231Z,4.03
2018-07-11T02:18:08.546Z,4.50
2018-07-11T02:20:42.780Z,4.40
2018-07-11T02:23:17.109Z,4.92
2018-07-11T02:25:50.286Z,5.72
2018-07-11T02:28:27.526Z,5.03
2018-07-11T02:30:57.555Z,4.35
2018-07-11T02:33:27.503Z,5.20
2018-07-11T02:35:58.658Z,4.53
2018-07-11T02:38:31.370Z,4.25
2018-07-11T02:41:02.002Z,4.17
2018-07-11T02:43:31.881Z,4.00
2018-07-11T02:46:02.207Z,4.33
2018-07-11T02:48:32.844Z,4.37
2018-07-11T02:51:03.675Z,4.33
2018-07-11T02:53:34.878Z,4.33
2018-07-11T02:56:05.237Z,4.67
2018-07-11T02:58:35.127Z,3.90
2018-07-11T03:01:05.483Z,5.95
2018-07-11T03:03:35.847Z,4.10
2018-07-11T03:06:06.535Z,4.90
2018-07-11T03:08:39.256Z,5.33
2018-07-11T03:11:09.128Z,4.72
2018-07-11T03:13:39.239Z,4.65
2018-07-11T03:16:09.475Z,5.60
2018-07-11T03:18:42.415Z,3.80
2018-07-11T03:21:13.809Z,5.22
2018-07-11T03:23:44.192Z,4.45
2018-07-11T03:26:14.253Z,4.55
2018-07-11T03:28:44.426Z,4.10
2018-07-11T03:31:17.695Z,4.67
2018-07-11T03:33:48.747Z,4.92
2018-07-11T03:36:18.780Z,4.72
2018-07-11T03:39:09.034Z,5.17
2018-07-11T03:41:41.006Z,4.17
2018-07-11T03:44:15.803Z,6.28
2018-07-11T03:46:47.593Z,4.55
2018-07-11T03:49:17.639Z,4.45
2018-07-11T03:51:47.731Z,4.70
2018-07-11T03:54:19.684Z,4.45
2018-07-11T03:56:50.040Z,4.90
2018-07-11T03:59:19.918Z,4.33
2018-07-11T04:01:52.501Z,4.10
2018-07-11T04:04:22.352Z,5.00
2018-07-11T04:06:54.423Z,5.65
2018-07-11T04:09:35.818Z,6.03
2018-07-11T04:12:07.734Z,7.40
2018-07-11T04:14:37.664Z,7.92
2018-07-11T04:17:08.178Z,9.25
2018-07-11T04:19:37.912Z,6.87
2018-07-11T04:22:08.052Z,5.72
2018-07-11T04:24:38.431Z,4.45
2018-07-11T04:27:10.804Z,5.65
2018-07-11T04:29:41.055Z,5.75
2018-07-11T04:32:11.833Z,6.70
2018-07-11T04:34:44.089Z,4.78
2018-07-11T04:37:16.433Z,5.97
2018-07-11T04:40:04.325Z,7.53
2018-07-11T04:42:58.807Z,5.55
2018-07-11T04:45:29.422Z,4.78
2018-07-11T04:48:00.578Z,7.62
2018-07-11T04:50:31.141Z,8.40
2018-07-11T04:53:05.875Z,5.65
2018-07-11T04:55:36.200Z,6.50
2018-07-11T04:58:06.720Z,6.12
2018-07-11T05:00:37.378Z,7.58
2018-07-11T05:03:07.844Z,5.10
2018-07-11T05:05:37.865Z,10.08
2018-07-11T05:08:17.059Z,5.85
2018-07-11T05:11:00.057Z,6.28
2018-07-11T05:13:30.002Z,8.35
2018-07-11T05:16:00.270Z,5.60
2018-07-11T05:18:31.471Z,7.87
2018-07-11T05:21:02.453Z,7.10
2018-07-11T05:23:32.755Z,7.78
2018-07-11T05:26:02.931Z,6.85
2018-07-11T05:28:33.784Z,5.28
2018-07-11T05:31:04.498Z,5.95
2018-07-11T05:33:34.645Z,5.53
2018-07-11T05:36:07.597Z,7.00
2018-07-11T05:38:37.691Z,8.98
2018-07-11T05:41:09.103Z,6.92
2018-07-11T05:43:40.742Z,7.92
2018-07-11T05:46:14.143Z,10.32
2018-07-11T05:48:50.231Z,8.43
2018-07-11T05:51:22.991Z,8.78
2018-07-11T05:53:55.443Z,6.50
2018-07-11T05:56:30.163Z,6.35
2018-07-11T05:59:01.771Z,6.58
2018-07-11T06:01:32.810Z,6.45
2018-07-11T06:04:04.092Z,6.65
2018-07-11T06:06:34.074Z,6.53
2018-07-11T06:09:05.393Z,6.33
2018-07-11T06:11:41.547Z,9.95
2018-07-11T06:14:12.414Z,6.35
2018-07-11T06:16:48.558Z,8.05
2018-07-11T06:19:21.808Z,6.10
2018-07-11T06:21:53.667Z,6.12
2018-07-11T06:24:24.648Z,7.00
2018-07-11T06:26:55.300Z,6.75
2018-07-11T06:29:27.821Z,8.43
2018-07-11T06:31:57.751Z,8.28
2018-07-11T06:34:32.244Z,8.15
2018-07-11T06:37:02.235Z,8.53
2018-07-11T06:39:32.758Z,7.28
2018-07-11T06:42:03.182Z,7.20
2018-07-11T06:44:33.091Z,8.28
2018-07-11T06:47:21.823Z,8.03
2018-07-11T06:49:52.114Z,8.35
2018-07-11T06:52:22.030Z,7.37
2018-07-11T06:54:51.723Z,7.75
2018-07-11T06:57:23.875Z,8.08
2018-07-11T06:59:55.402Z,7.28
2018-07-11T07:02:25.923Z,9.78
2018-07-11T07:04:57.164Z,11.08
2018-07-11T07:07:27.112Z,7.08
2018-07-11T07:09:57.892Z,6.80
2018-07-11T07:12:28.533Z,8.08
2018-07-11T07:15:09.083Z,7.60
2018-07-11T07:17:39.172Z,7.30
2018-07-11T07:20:10.451Z,7.58
2018-07-11T07:22:40.382Z,7.87
2018-07-11T07:25:11.414Z,8.50
2018-07-11T07:27:41.256Z,8.03
2018-07-11T07:30:12.332Z,7.80
2018-07-11T07:32:46.668Z,8.15
2018-07-11T07:38:19.132Z,8.43
2018-07-11T07:43:49.490Z,9.78
2018-07-11T07:46:27.479Z,8.48
2018-07-11T07:48:57.939Z,8.45
2018-07-11T07:51:27.898Z,8.48
2018-07-11T07:53:58.093Z,8.95
2018-07-11T07:57:05.399Z,8.58
2018-07-11T08:00:09.060Z,8.78
2018-07-11T08:02:40.039Z,8.60
2018-07-11T08:05:12.452Z,11.43
2018-07-11T08:07:45.892Z,10.28
2018-07-11T08:10:18.486Z,9.20
2018-07-11T08:12:50.515Z,10.18
2018-07-11T08:15:23.358Z,10.15
2018-07-11T08:17:54.089Z,9.33
2018-07-11T08:20:26.047Z,9.85
2018-07-11T08:23:23.218Z,10.58
2018-07-11T08:26:10.604Z,11.18
2018-07-11T08:33:41.376Z,10.15
2018-07-11T08:37:34.703Z,10.38
2018-07-11T08:42:43.166Z,14.47
2018-07-11T08:47:36.424Z,13.10
2018-07-11T08:52:33.371Z,12.28
2018-07-11T08:57:39.132Z,11.93
2018-07-11T09:04:57.248Z,12.20
2018-07-11T09:12:57.698Z,11.68
2018-07-11T09:15:51.749Z,12.25
2018-07-11T09:20:53.519Z,12.35
2018-07-11T09:24:03.767Z,12.23
2018-07-11T09:26:40.240Z,13.03
2018-07-11T09:29:13.271Z,11.05
2018-07-11T09:31:46.025Z,11.03
2018-07-11T09:34:24.654Z,12.18
2018-07-11T09:40:31.504Z,9.50
2018-07-11T09:43:03.694Z,10.28
2018-07-11T09:45:36.869Z,9.90
2018-07-11T09:48:10.001Z,10.78
2018-07-11T09:50:41.563Z,10.18
2018-07-11T09:53:17.440Z,8.90
2018-07-11T09:55:49.677Z,10.13
2018-07-11T09:58:26.721Z,9.23
2018-07-11T10:01:10.988Z,10.18
2018-07-11T10:03:43.638Z,10.18
2018-07-11T10:06:17.011Z,10.88
2018-07-11T10:08:48.313Z,12.13
2018-07-11T10:11:25.137Z,11.25
2018-07-11T10:22:28.351Z,3.40
2018-07-11T10:24:59.502Z,2.42
2018-07-11T10:27:34.786Z,3.47
2018-07-11T10:30:04.993Z,3.40
2018-07-11T10:32:37.206Z,3.50
2018-07-11T10:35:08.313Z,3.62
2018-07-11T10:37:39.243Z,3.75
2018-07-11T10:40:15.528Z,3.20
2018-07-11T10:43:17.048Z,2.75
2018-07-11T10:46:25.408Z,2.92
2018-07-11T10:48:56.885Z,2.70
2018-07-11T10:51:28.515Z,1.50
2018-07-11T10:54:01.706Z,1.35
2018-07-11T10:56:49.638Z,1.30
2018-07-11T10:59:22.130Z,1.22
2018-07-11T11:01:58.671Z,1.15
2018-07-11T11:04:32.434Z,0.93
2018-07-11T11:07:04.135Z,1.12
2018-07-11T11:09:36.404Z,1.30
2018-07-11T11:12:16.012Z,1.85
2018-07-11T11:14:48.413Z,0.93
2018-07-11T11:17:20.750Z,1.30
2018-07-11T11:19:55.269Z,1.65
2018-07-11T11:22:30.228Z,1.25
2018-07-11T11:25:03.630Z,1.85
2018-07-11T11:27:34.424Z,1.47
2018-07-11T11:30:04.526Z,2.22
2018-07-11T11:32:35.265Z,1.47
2018-07-11T11:35:08.665Z,1.37
2018-07-11T11:37:39.699Z,0.90
2018-07-11T11:40:15.543Z,1.70
2018-07-11T11:42:47.557Z,1.98
2018-07-11T11:45:19.175Z,1.45
2018-07-11T11:47:49.358Z,1.45
2018-07-11T11:57:10.256Z,2.00
2018-07-11T11:59:45.889Z,2.33
2018-07-11T12:02:17.291Z,2.05
2018-07-11T12:04:54.041Z,1.70
2018-07-11T12:07:30.472Z,1.82
2018-07-11T12:10:02.552Z,1.70
2018-07-11T12:12:48.050Z,1.77
2018-07-11T12:15:40.200Z,4.85
2018-07-11T12:18:13.603Z,1.80
2018-07-11T12:20:46.423Z,1.55
2018-07-11T12:23:22.544Z,1.65
2018-07-11T12:26:10.670Z,1.55
2018-07-11T12:28:41.545Z,1.55
2018-07-11T12:31:13.026Z,1.67
2018-07-11T12:33:46.065Z,2.00
2018-07-11T12:36:18.594Z,1.52
2018-07-11T12:38:53.733Z,1.52
2018-07-11T12:41:25.746Z,2.95
2018-07-11T12:43:57.070Z,1.70
2018-07-11T12:46:26.894Z,1.57
2018-07-11T12:49:07.509Z,1.47
2018-07-11T12:51:40.109Z,1.98
2018-07-11T12:54:11.782Z,2.55
2018-07-11T13:05:25.080Z,1.82
2018-07-11T13:07:55.572Z,1.52
2018-07-11T13:10:27.355Z,2.10
2018-07-11T13:13:07.241Z,1.60
2018-07-11T13:15:37.842Z,2.22
2018-07-11T13:18:09.836Z,1.70
2018-07-11T13:20:48.704Z,2.22
2018-07-11T13:23:18.744Z,1.20
2018-07-11T13:25:49.616Z,1.62
2018-07-11T13:28:24.418Z,1.80
2018-07-11T13:30:56.206Z,1.80
2018-07-11T13:33:29.708Z,4.35
2018-07-11T13:36:01.546Z,3.85
2018-07-11T13:38:37.228Z,6.95
2018-07-11T13:41:11.628Z,2.70
2018-07-11T13:43:44.124Z,2.72
2018-07-11T13:46:29.174Z,2.80
2018-07-11T13:51:28.503Z,2.70
2018-07-11T13:54:00.608Z,3.95
2018-07-11T13:56:30.891Z,2.55
2018-07-11T13:59:03.690Z,3.27
2018-07-11T14:01:36.986Z,2.55
2018-07-11T14:05:55.264Z,2.35
2018-07-11T14:08:28.518Z,2.55
2018-07-11T14:11:09.555Z,2.08
2018-07-11T14:14:03.329Z,3.05
2018-07-11T14:16:38.110Z,2.35
2018-07-11T14:19:09.325Z,2.50
2018-07-11T14:21:41.223Z,2.80
2018-07-11T14:24:39.123Z,3.25
2018-07-11T14:31:09.410Z,2.58
2018-07-11T14:33:42.551Z,2.70
2018-07-11T14:36:13.405Z,2.62
2018-07-11T14:38:43.916Z,2.83
2018-07-11T14:41:18.674Z,2.87
2018-07-11T14:43:48.819Z,2.17
2018-07-11T14:46:20.387Z,2.52
2018-07-11T14:48:51.468Z,2.37
2018-07-11T14:51:23.576Z,2.50
2018-07-11T14:53:56.756Z,2.75
2018-07-11T14:56:29.489Z,2.20
2018-07-11T14:59:05.513Z,2.08
2018-07-11T15:01:35.858Z,2.50
2018-07-11T15:04:07.989Z,2.00
2018-07-11T15:06:40.514Z,2.15
2018-07-11T15:09:13.105Z,2.10
2018-07-11T15:12:14.678Z,2.45
2018-07-11T15:14:50.414Z,1.90
2018-07-11T15:17:33.153Z,1.90
2018-07-11T15:20:12.994Z,2.20
2018-07-11T15:25:32.536Z,2.30
2018-07-11T15:28:13.384Z,2.40
2018-07-11T15:31:23.769Z,1.95
2018-07-11T15:42:35.112Z,2.45
2018-07-11T15:45:07.623Z,3.02
2018-07-11T15:47:43.375Z,3.35
2018-07-11T15:53:14.084Z,2.92
2018-07-11T15:55:44.441Z,4.78
2018-07-11T15:58:17.584Z,2.70
2018-07-11T16:00:52.517Z,2.83
2018-07-11T16:03:27.374Z,2.85
2018-07-11T16:05:58.989Z,2.90
2018-07-11T16:08:32.042Z,2.90
2018-07-11T16:11:08.044Z,3.05
2018-07-11T16:13:40.244Z,2.50
2018-07-11T16:16:19.512Z,3.05
2018-07-11T16:18:53.406Z,2.90
2018-07-11T16:21:27.638Z,2.70
2018-07-11T16:23:58.367Z,2.95
2018-07-11T16:26:31.268Z,4.70
2018-07-11T16:29:01.985Z,4.10
2018-07-11T16:31:38.085Z,2.83
2018-07-11T16:37:58.731Z,3.08
2018-07-11T16:40:55.105Z,2.35
2018-07-11T16:49:27.223Z,3.10
2018-07-11T16:51:57.270Z,4.10
2018-07-11T16:54:32.409Z,3.27
2018-07-11T16:57:07.181Z,3.40
2018-07-11T16:59:50.748Z,3.33
2018-07-11T17:02:25.533Z,3.62
2018-07-11T17:05:26.445Z,3.10
2018-07-11T17:08:05.842Z,3.05
2018-07-11T17:10:45.673Z,2.90
2018-07-11T17:13:22.709Z,3.50
2018-07-11T17:15:55.685Z,2.90
2018-07-11T17:18:50.966Z,2.98
2018-07-11T17:30:59.435Z,3.72
2018-07-11T17:33:33.714Z,3.77
2018-07-11T17:36:11.105Z,3.52
2018-07-11T17:38:43.836Z,3.10
2018-07-11T17:41:17.300Z,3.85
2018-07-11T17:43:58.213Z,4.10
2018-07-11T17:46:33.092Z,3.83
2018-07-11T17:49:22.987Z,3.85
2018-07-11T17:52:08.826Z,3.85
2018-07-11T17:55:18.333Z,3.95
